Time;durP1;ratioP1;P1;durP2;ratioP2;P2;SDS_P1;SDS_P2;PMS_P1;PMS_P2;Temp;Humidity;BMP_temperature;BMP_pressure;BME280_temperature;BME280_humidity;BME280_pressure;Samples;Min_cycle;Max_cycle;Signal;HPM_P1;HPM_P2
2024/02/03 00:00:24;;;;;;;8.70;6.80;;;;;;;5.43;100.00;99078.09;105432;1260;60488;-74
2024/02/03 00:03:11;;;;;;;8.40;7.60;;;;;;;5.44;100.00;99081.89;105422;1260;60405;-72
2024/02/03 00:05:39;;;;;;;8.60;6.60;;;;;;;5.44;100.00;99071.31;105440;1258;65755;-73
2024/02/03 00:08:06;;;;;;;11.80;6.70;;;;;;;5.45;100.00;99065.83;105401;1257;61636;-73
2024/02/03 00:10:33;;;;;;;10.00;7.10;;;;;;;5.45;100.00;99064.77;105404;1260;65773;-73
2024/02/03 00:13:03;;;;;;;8.30;6.10;;;;;;;5.44;100.00;99059.15;105448;1257;60794;-74
2024/02/03 00:15:29;;;;;;;9.60;6.70;;;;;;;5.44;100.00;99056.02;105405;1257;60460;-74
2024/02/03 00:17:56;;;;;;;9.20;7.00;;;;;;;5.44;100.00;99053.02;105607;1259;66716;-74
2024/02/03 00:20:23;;;;;;;10.70;7.30;;;;;;;5.46;100.00;99058.91;105573;1259;60421;-73
2024/02/03 00:22:51;;;;;;;10.10;6.80;;;;;;;5.48;100.00;99060.55;105581;1257;65537;-72
2024/02/03 00:25:18;;;;;;;8.40;6.40;;;;;;;5.49;100.00;99055.39;105572;1256;60469;-73
2024/02/03 00:27:47;;;;;;;10.50;6.30;;;;;;;5.50;100.00;99052.02;105707;1257;60521;-73
2024/02/03 00:30:13;;;;;;;8.80;6.50;;;;;;;5.51;100.00;99047.75;105676;1257;66727;-73
2024/02/03 00:32:40;;;;;;;10.10;6.80;;;;;;;5.54;100.00;99045.52;105567;1257;61665;-72
2024/02/03 00:35:07;;;;;;;8.50;6.00;;;;;;;5.55;100.00;99041.06;105567;1259;65626;-73
2024/02/03 00:37:34;;;;;;;8.80;6.80;;;;;;;5.55;100.00;99037.56;105571;1257;60665;-73
2024/02/03 00:40:03;;;;;;;8.60;6.30;;;;;;;5.54;100.00;99037.05;105605;1257;60959;-73
2024/02/03 00:42:30;;;;;;;8.00;5.80;;;;;;;5.54;100.00;99036.91;105552;1257;66806;-73
2024/02/03 00:44:56;;;;;;;10.10;6.50;;;;;;;5.53;100.00;99037.98;105605;1259;61580;-72
2024/02/03 00:47:23;;;;;;;10.00;6.80;;;;;;;5.52;100.00;99047.02;104845;1256;1002486;-73
2024/02/03 00:49:49;;;;;;;10.20;6.60;;;;;;;5.53;100.00;99058.96;105501;1257;60546;-78
2024/02/03 00:52:16;;;;;;;8.60;6.80;;;;;;;5.52;100.00;99064.63;105484;1258;60476;-72
2024/02/03 00:54:43;;;;;;;10.20;6.90;;;;;;;5.52;100.00;99064.45;105480;1258;65246;-73
2024/02/03 00:57:10;;;;;;;11.00;7.20;;;;;;;5.52;100.00;99065.88;105549;1261;61561;-74
2024/02/03 00:59:36;;;;;;;10.10;7.30;;;;;;;5.52;100.00;99071.50;105420;1258;64631;-73
2024/02/03 01:02:03;;;;;;;12.20;7.70;;;;;;;5.51;100.00;99066.77;105493;1257;59522;-73
2024/02/03 01:04:30;;;;;;;9.10;6.30;;;;;;;5.50;100.00;99077.40;105481;1257;60370;-74
2024/02/03 01:06:58;;;;;;;8.50;7.40;;;;;;;5.50;100.00;99079.35;105539;1257;66731;-74
2024/02/03 01:09:25;;;;;;;11.80;7.70;;;;;;;5.49;100.00;99072.50;105441;1258;60776;-73
2024/02/03 01:11:54;;;;;;;10.00;7.60;;;;;;;5.49;100.00;99070.24;105366;1257;65640;-74
2024/02/03 01:14:20;;;;;;;11.60;6.90;;;;;;;5.47;100.00;99070.11;105360;1256;60477;-76
2024/02/03 01:16:48;;;;;;;11.20;6.80;;;;;;;5.46;100.00;99066.99;105392;1257;60565;-72
2024/02/03 01:19:15;;;;;;;10.00;6.70;;;;;;;5.45;100.00;99073.39;105400;1260;66781;-73
2024/02/03 01:21:42;;;;;;;9.50;6.90;;;;;;;5.45;100.00;99072.52;105403;1257;61865;-73
2024/02/03 01:24:08;;;;;;;9.60;7.80;;;;;;;5.44;100.00;99068.84;105417;1256;65636;-72
2024/02/03 01:36:58;;;;;;;11.50;7.70;;;;;;;5.45;100.00;99059.48;102602;1294;600733;-73
2024/02/03 01:39:25;;;;;;;9.90;7.70;;;;;;;5.44;100.00;99060.77;105069;1267;59392;-73
2024/02/03 01:41:51;;;;;;;9.90;7.20;;;;;;;5.45;100.00;99059.46;105063;1264;59133;-76
2024/02/03 01:44:18;;;;;;;10.40;6.90;;;;;;;5.46;100.00;99060.98;105078;1266;59299;-78
2024/02/03 01:46:45;;;;;;;8.60;6.80;;;;;;;5.47;100.00;99060.80;105048;1264;59344;-73
2024/02/03 01:49:12;;;;;;;9.20;7.70;;;;;;;5.48;100.00;99060.59;105115;1264;64648;-73
2024/02/03 01:51:39;;;;;;;10.50;7.40;;;;;;;5.49;100.00;99058.39;105088;1265;118264;-73
2024/02/03 01:54:06;;;;;;;11.90;8.20;;;;;;;5.50;100.00;99050.25;105212;1262;59247;-74
2024/02/03 01:56:35;;;;;;;10.50;7.50;;;;;;;5.51;100.00;99048.12;105209;1265;65104;-73
2024/02/03 01:59:03;;;;;;;12.30;8.20;;;;;;;5.51;100.00;99046.16;105347;1262;60430;-74
2024/02/03 02:01:30;;;;;;;10.30;8.50;;;;;;;5.52;100.00;99046.85;105098;1265;64834;-74
2024/02/03 02:03:57;;;;;;;9.70;7.50;;;;;;;5.52;100.00;99044.01;105074;1268;59627;-73
2024/02/03 02:06:24;;;;;;;8.60;7.30;;;;;;;5.54;100.00;99046.41;105201;1263;59717;-73
2024/02/03 02:08:51;;;;;;;11.60;7.30;;;;;;;5.55;100.00;99042.12;105198;1263;65185;-73
2024/02/03 02:11:19;;;;;;;9.10;7.30;;;;;;;5.56;100.00;99045.25;105225;1265;60458;-74
2024/02/03 02:13:46;;;;;;;10.90;7.30;;;;;;;5.57;100.00;99042.92;105014;1269;63186;-73
2024/02/03 02:16:13;;;;;;;9.00;6.90;;;;;;;5.57;100.00;99039.39;105621;1256;59714;-73
2024/02/03 02:18:40;;;;;;;8.30;6.90;;;;;;;5.57;100.00;99041.83;105412;1257;59859;-73
2024/02/03 02:21:07;;;;;;;9.70;7.30;;;;;;;5.58;100.00;99040.91;105649;1259;66167;-74
2024/02/03 02:23:33;;;;;;;12.50;7.80;;;;;;;5.59;100.00;99042.10;105633;1259;60710;-74
2024/02/03 02:26:00;;;;;;;9.10;7.20;;;;;;;5.60;100.00;99037.48;105679;1259;65798;-74
2024/02/03 02:28:27;;;;;;;8.40;6.70;;;;;;;5.59;100.00;99029.58;105640;1256;59675;-74
2024/02/03 02:30:53;;;;;;;8.50;6.50;;;;;;;5.59;100.00;99018.33;105637;1257;59625;-74
2024/02/03 02:33:20;;;;;;;11.60;7.90;;;;;;;5.58;100.00;99022.23;105648;1257;65462;-74
2024/02/03 02:35:49;;;;;;;12.00;7.70;;;;;;;5.58;100.00;99025.22;105653;1256;60701;-72
2024/02/03 02:38:19;;;;;;;8.00;7.10;;;;;;;5.59;100.00;99019.02;105522;1256;64634;-74
2024/02/03 02:40:46;;;;;;;7.60;6.90;;;;;;;5.60;100.00;99011.75;105659;1256;59622;-74
2024/02/03 02:43:12;;;;;;;9.70;7.50;;;;;;;5.61;100.00;99009.77;105585;1256;59626;-74
2024/02/03 02:45:39;;;;;;;10.70;7.70;;;;;;;5.61;100.00;99013.63;105613;1254;66045;-73
2024/02/03 02:48:06;;;;;;;9.00;7.60;;;;;;;5.63;100.00;99008.79;105598;1255;61727;-73
2024/02/03 02:50:33;;;;;;;10.00;7.40;;;;;;;5.64;100.00;99010.33;105546;1256;65596;-73
2024/02/03 02:52:59;;;;;;;10.60;7.60;;;;;;;5.64;100.00;99009.27;105601;1259;59516;-73
2024/02/03 02:55:26;;;;;;;8.70;7.10;;;;;;;5.65;100.00;99006.76;105603;1259;59538;-73
2024/02/03 02:57:53;;;;;;;9.60;7.10;;;;;;;5.66;100.00;99008.11;105614;1257;65160;-73
2024/02/03 03:00:32;;;;;;;9.70;7.10;;;;;;;5.68;100.00;99012.42;105571;1258;60705;-73
2024/02/03 03:02:59;;;;;;;11.10;6.60;;;;;;;5.69;100.00;99016.79;105588;1259;65681;-73
2024/02/03 03:05:26;;;;;;;12.90;8.10;;;;;;;5.69;100.00;99016.06;105784;1259;59724;-75
2024/02/03 03:07:53;;;;;;;8.60;7.60;;;;;;;5.71;100.00;99008.04;105557;1256;62289;-73
2024/02/03 03:10:19;;;;;;;10.00;7.40;;;;;;;5.73;100.00;99005.66;105617;1256;65931;-73
2024/02/03 03:12:46;;;;;;;11.60;7.80;;;;;;;5.76;100.00;99012.43;105621;1257;61634;-73
2024/02/03 03:15:13;;;;;;;9.30;6.90;;;;;;;5.78;100.00;99016.70;105622;1256;64592;-74
2024/02/03 03:17:40;;;;;;;8.00;6.90;;;;;;;5.80;100.00;99018.00;105611;1258;59721;-73
2024/02/03 03:20:08;;;;;;;10.20;7.10;;;;;;;5.82;100.00;99022.36;105606;1255;59717;-73
2024/02/03 03:22:34;;;;;;;11.60;7.70;;;;;;;5.82;100.00;99024.82;105661;1259;65735;-73
2024/02/03 03:25:01;;;;;;;7.90;6.80;;;;;;;5.82;100.00;99029.58;105601;1257;61585;-74
2024/02/03 03:27:27;;;;;;;11.00;7.20;;;;;;;5.82;100.00;99033.45;105587;1258;64369;-73
2024/02/03 03:29:54;;;;;;;8.70;7.00;;;;;;;5.82;100.00;99033.13;105636;1256;59904;-74
2024/02/03 03:32:20;;;;;;;7.30;6.50;;;;;;;5.82;100.00;99031.86;105499;1256;59604;-74
2024/02/03 03:34:48;;;;;;;9.80;6.90;;;;;;;5.82;100.00;99029.75;105573;1259;66228;-73
2024/02/03 03:37:15;;;;;;;10.10;6.20;;;;;;;5.82;100.00;99023.23;105472;1256;61873;-72
2024/02/03 03:39:41;;;;;;;7.40;6.60;;;;;;;5.82;100.00;99021.46;105576;1258;65346;-74
2024/02/03 03:42:08;;;;;;;9.30;7.10;;;;;;;5.83;100.00;99015.44;105559;1256;59697;-73
2024/02/03 03:44:35;;;;;;;8.70;6.50;;;;;;;5.84;100.00;99014.48;105595;1256;59573;-73
2024/02/03 03:47:01;;;;;;;9.70;7.20;;;;;;;5.85;100.00;99013.02;105640;1259;64878;-73
2024/02/03 03:49:32;;;;;;;8.60;6.70;;;;;;;5.86;100.00;99015.44;105595;1257;59499;-74
2024/02/03 03:52:00;;;;;;;11.40;7.20;;;;;;;5.87;100.00;99017.70;105605;1257;65547;-73
2024/02/03 03:54:27;;;;;;;9.90;6.70;;;;;;;5.89;100.00;99013.55;105589;1259;59710;-74
2024/02/03 03:56:53;;;;;;;9.60;7.40;;;;;;;5.92;100.00;99015.02;105590;1259;59617;-73
2024/02/03 03:59:20;;;;;;;9.90;6.60;;;;;;;5.93;100.00;99016.36;105450;1255;64412;-73
2024/02/03 04:01:50;;;;;;;10.10;7.40;;;;;;;5.94;100.00;99014.23;105572;1257;61705;-74
2024/02/03 04:04:17;;;;;;;;;;;;;;;5.98;100.00;99016.02;105602;1258;65343;-72
2024/02/03 04:06:44;;;;;;;9.00;6.50;;;;;;;5.99;100.00;99011.35;105599;1259;59260;-73
2024/02/03 04:09:13;;;;;;;7.50;6.70;;;;;;;6.01;100.00;99009.84;105524;1257;59704;-73
2024/02/03 04:11:40;;;;;;;12.00;7.20;;;;;;;6.04;100.00;99020.27;105617;1256;64999;-74
2024/02/03 04:14:07;;;;;;;9.00;6.50;;;;;;;6.07;100.00;99017.50;105406;1256;61650;-73
2024/02/03 04:16:34;;;;;;;11.40;7.30;;;;;;;6.09;100.00;99025.66;105625;1256;65695;-73
2024/02/03 04:19:00;;;;;;;9.10;6.70;;;;;;;6.10;100.00;99026.50;105595;1254;59513;-73
2024/02/03 04:21:28;;;;;;;6.90;6.20;;;;;;;6.12;100.00;99035.42;105572;1259;59546;-73
2024/02/03 04:23:55;;;;;;;8.00;6.60;;;;;;;6.14;100.00;99032.68;105482;1257;64656;-73
2024/02/03 04:26:21;;;;;;;7.20;6.00;;;;;;;6.16;100.00;99031.86;105591;1259;60729;-74
2024/02/03 04:28:48;;;;;;;8.30;6.20;;;;;;;6.21;100.00;99032.70;105776;1259;65719;-74
2024/02/03 04:31:15;;;;;;;7.80;6.10;;;;;;;6.24;100.00;99036.59;105767;1256;59618;-74
2024/02/03 04:33:41;;;;;;;13.50;7.70;;;;;;;6.27;100.00;99041.02;105767;1259;59496;-74
2024/02/03 04:36:08;;;;;;;9.20;7.40;;;;;;;6.30;100.00;99041.45;105551;1259;65910;-74
2024/02/03 04:38:35;;;;;;;7.10;6.20;;;;;;;6.32;100.00;99045.92;105579;1259;60597;-75
2024/02/03 04:41:01;;;;;;;9.60;6.10;;;;;;;6.33;100.00;99042.01;105547;1259;65707;-74
2024/02/03 04:43:28;;;;;;;8.10;6.10;;;;;;;6.36;100.00;99044.50;105566;1259;59621;-74
2024/02/03 04:45:54;;;;;;;7.00;5.80;;;;;;;6.38;100.00;99035.73;105553;1259;59646;-72
2024/02/03 04:48:21;;;;;;;7.10;5.70;;;;;;;6.40;100.00;99040.78;105578;1256;66112;-74
2024/02/03 04:50:48;;;;;;;8.30;5.90;;;;;;;6.41;100.00;99040.02;105607;1259;60643;-73
2024/02/03 04:53:14;;;;;;;7.70;6.30;;;;;;;6.42;100.00;99038.02;105559;1256;64589;-73
2024/02/03 04:55:41;;;;;;;8.00;5.90;;;;;;;6.44;100.00;99040.38;105583;1257;59632;-74
2024/02/03 04:58:07;;;;;;;9.80;6.00;;;;;;;6.45;100.00;99036.28;105527;1257;59553;-73
2024/02/03 05:00:34;;;;;;;9.10;6.80;;;;;;;6.47;100.00;99036.20;105569;1259;65945;-74
2024/02/03 05:03:00;;;;;;;8.80;6.20;;;;;;;6.48;100.00;99032.64;105569;1259;61589;-75
2024/02/03 05:05:27;;;;;;;9.00;6.40;;;;;;;6.49;100.00;99036.45;105607;1257;65656;-72
2024/02/03 05:07:54;;;;;;;9.50;5.80;;;;;;;6.50;100.00;99034.28;105571;1259;59539;-73
2024/02/03 05:10:20;;;;;;;8.40;6.40;;;;;;;6.51;100.00;99039.55;105589;1259;59829;-74
2024/02/03 05:12:47;;;;;;;6.50;4.90;;;;;;;6.51;100.00;99031.38;105571;1259;66023;-73
2024/02/03 05:15:14;;;;;;;8.00;6.10;;;;;;;6.52;100.00;99034.17;105592;1259;61261;-74
2024/02/03 05:17:40;;;;;;;8.60;5.80;;;;;;;6.53;100.00;99032.53;105522;1259;65773;-73
2024/02/03 05:20:08;;;;;;;8.00;5.60;;;;;;;6.55;100.00;99025.91;105542;1257;59744;-72
2024/02/03 05:22:34;;;;;;;6.50;5.70;;;;;;;6.56;100.00;99022.84;105315;1264;59846;-73
2024/02/03 05:25:02;;;;;;;7.70;5.30;;;;;;;6.57;100.00;99025.09;105533;1259;59622;-73
2024/02/03 05:27:29;;;;;;;6.80;5.10;;;;;;;6.57;100.00;99025.25;105549;1259;61741;-73
2024/02/03 05:29:55;;;;;;;7.90;5.60;;;;;;;6.58;100.00;99024.17;105541;1259;64014;-71
2024/02/03 05:32:22;;;;;;;5.80;4.90;;;;;;;6.58;100.00;99025.38;105284;1262;59664;-75
2024/02/03 05:34:48;;;;;;;8.40;5.40;;;;;;;6.58;100.00;99029.42;105540;1259;59664;-73
2024/02/03 05:37:15;;;;;;;7.30;5.40;;;;;;;6.59;100.00;99038.07;105570;1259;66012;-73
2024/02/03 05:50:04;;;;;;;7.90;5.70;;;;;;;6.63;100.00;99042.82;102682;1289;600362;-75
2024/02/03 05:52:30;;;;;;;6.00;4.90;;;;;;;6.61;100.00;99044.34;105036;1266;59183;-74
2024/02/03 05:54:57;;;;;;;8.10;6.00;;;;;;;6.62;100.00;99039.48;105448;1256;59376;-74
2024/02/03 05:57:24;;;;;;;5.50;4.90;;;;;;;6.63;100.00;99041.38;105522;1257;64347;-74
2024/02/03 05:59:50;;;;;;;7.70;5.10;;;;;;;6.64;100.00;99034.66;105500;1262;60643;-74
2024/02/03 06:02:17;;;;;;;5.50;5.00;;;;;;;6.66;100.00;99033.85;105471;1257;64576;-73
2024/02/03 06:04:43;;;;;;;8.50;5.30;;;;;;;6.67;100.00;99034.84;105523;1257;149558;-73
2024/02/03 06:07:11;;;;;;;6.10;5.20;;;;;;;6.68;100.00;99035.67;105639;1256;59236;-73
2024/02/03 06:09:37;;;;;;;7.50;5.30;;;;;;;6.69;100.00;99035.79;105592;1259;65207;-74
2024/02/03 06:12:04;;;;;;;7.90;5.60;;;;;;;6.69;100.00;99037.55;105664;1257;59222;-74
2024/02/03 06:14:32;;;;;;;6.50;5.30;;;;;;;6.70;100.00;99040.52;105666;1256;64548;-72
2024/02/03 06:16:58;;;;;;;7.90;5.10;;;;;;;6.71;100.00;99047.86;105670;1257;59653;-74
2024/02/03 06:19:25;;;;;;;6.70;5.20;;;;;;;6.72;100.00;99045.16;105672;1259;59622;-73
2024/02/03 06:21:51;;;;;;;5.50;4.80;;;;;;;6.73;100.00;99042.43;105603;1257;64397;-73
2024/02/03 06:24:18;;;;;;;5.60;4.70;;;;;;;6.75;100.00;99045.55;105614;1259;61758;-74
2024/02/03 06:26:45;;;;;;;9.00;5.40;;;;;;;6.76;100.00;99039.67;105426;1265;63927;-74
2024/02/03 06:29:11;;;;;;;6.80;5.00;;;;;;;6.77;100.00;99039.98;105567;1258;59560;-73
2024/02/03 06:31:38;;;;;;;6.90;4.80;;;;;;;6.79;100.00;99043.06;105682;1259;59620;-73
2024/02/03 06:34:04;;;;;;;6.50;4.40;;;;;;;6.80;100.00;99042.30;105813;1259;66027;-73
2024/02/03 06:36:31;;;;;;;7.80;5.50;;;;;;;6.82;100.00;99047.85;105621;1259;61504;-72
2024/02/03 06:38:58;;;;;;;6.90;5.40;;;;;;;6.85;100.00;99058.15;105680;1255;64578;-73
2024/02/03 06:41:24;;;;;;;5.70;5.10;;;;;;;6.85;100.00;99054.75;105632;1257;59518;-74
2024/02/03 06:43:51;;;;;;;5.90;5.20;;;;;;;6.86;100.00;99051.86;105608;1256;60128;-73
2024/02/03 06:46:17;;;;;;;7.10;5.00;;;;;;;6.88;100.00;99047.02;105649;1259;65864;-73
2024/02/03 06:48:44;;;;;;;6.20;5.00;;;;;;;6.88;100.00;99048.23;105638;1259;61636;-74
2024/02/03 06:51:11;;;;;;;8.30;5.40;;;;;;;6.90;100.00;99045.52;105605;1259;65819;-73
2024/02/03 06:53:38;;;;;;;6.00;5.10;;;;;;;6.91;100.00;99046.36;105487;1266;59824;-73
2024/02/03 06:56:05;;;;;;;5.60;4.90;;;;;;;6.91;100.00;99049.70;105638;1254;59557;-76
2024/02/03 06:58:32;;;;;;;9.00;6.10;;;;;;;6.91;100.00;99054.28;105557;1259;66097;-74
2024/02/03 07:00:58;;;;;;;6.40;5.20;;;;;;;6.92;100.00;99056.33;105578;1259;61301;-74
2024/02/03 07:03:27;;;;;;;6.90;5.00;;;;;;;6.92;100.00;99061.27;105587;1256;65861;-73
2024/02/03 07:05:53;;;;;;;8.10;4.90;;;;;;;6.93;100.00;99061.41;105567;1257;59685;-74
2024/02/03 07:08:20;;;;;;;6.10;5.30;;;;;;;6.95;100.00;99060.81;105585;1257;59417;-73
2024/02/03 07:10:47;;;;;;;7.10;4.50;;;;;;;6.96;100.00;99061.77;105403;1257;63784;-73
2024/02/03 07:13:13;;;;;;;5.70;4.90;;;;;;;6.98;100.00;99063.27;105551;1259;60484;-74
2024/02/03 07:15:40;;;;;;;6.10;4.50;;;;;;;7.02;100.00;99056.74;105580;1257;64555;-73
2024/02/03 07:18:07;;;;;;;6.40;4.90;;;;;;;7.05;100.00;99056.21;105538;1257;60409;-75
2024/02/03 07:20:34;;;;;;;7.10;5.20;;;;;;;7.08;100.00;99062.95;105528;1259;59497;-74
2024/02/03 07:23:00;;;;;;;10.00;4.90;;;;;;;7.10;100.00;99066.23;105531;1258;65169;-76
2024/02/03 07:25:27;;;;;;;7.00;4.80;;;;;;;7.12;100.00;99056.20;105540;1259;60426;-75
2024/02/03 07:27:53;;;;;;;9.20;5.50;;;;;;;7.15;100.00;99048.09;105507;1257;65887;-75
2024/02/03 07:30:20;;;;;;;4.70;4.10;;;;;;;7.17;100.00;99041.63;105573;1259;59648;-75
2024/02/03 07:32:47;;;;;;;7.50;5.20;;;;;;;7.19;100.00;99042.04;105472;1257;59723;-74
2024/02/03 07:35:13;;;;;;;5.50;4.90;;;;;;;7.21;100.00;99048.64;105567;1259;65945;-75
2024/02/03 07:37:40;;;;;;;6.00;4.70;;;;;;;7.23;100.00;99049.07;105388;1257;59637;-75
2024/02/03 07:40:07;;;;;;;5.20;4.50;;;;;;;7.24;100.00;99056.44;105541;1259;65927;-74
2024/02/03 07:42:34;;;;;;;6.30;5.30;;;;;;;7.27;100.00;99055.23;105524;1256;59653;-74
2024/02/03 07:45:01;;;;;;;5.80;4.80;;;;;;;7.29;100.00;99054.61;105533;1259;59548;-73
2024/02/03 07:47:27;;;;;;;6.10;5.30;;;;;;;7.30;100.00;99057.91;105395;1256;64920;-73
2024/02/03 07:49:54;;;;;;;7.30;5.80;;;;;;;7.32;100.00;99060.27;105692;1259;61725;-73
2024/02/03 07:52:21;;;;;;;8.50;6.10;;;;;;;7.33;100.00;99055.63;105679;1256;65617;-74
2024/02/03 07:54:47;;;;;;;6.70;6.00;;;;;;;7.34;100.00;99055.77;105394;1261;59749;-72
2024/02/03 07:57:14;;;;;;;6.10;5.40;;;;;;;7.34;100.00;99057.54;105636;1259;59617;-73
2024/02/03 07:59:40;;;;;;;9.00;5.80;;;;;;;7.34;100.00;99058.73;105722;1255;65986;-73
2024/02/03 08:02:07;;;;;;;6.60;5.90;;;;;;;7.37;100.00;99051.20;105702;1258;61700;-73
2024/02/03 08:04:34;;;;;;;6.50;5.50;;;;;;;7.41;100.00;99056.66;105673;1257;65672;-74
2024/02/03 08:07:00;;;;;;;7.50;6.40;;;;;;;7.46;100.00;99062.57;105369;1262;59644;-74
2024/02/03 08:09:27;;;;;;;8.60;6.10;;;;;;;7.51;100.00;99057.86;105768;1257;59628;-73
2024/02/03 08:11:53;;;;;;;8.50;6.10;;;;;;;7.54;100.00;99054.34;105693;1257;64643;-73
2024/02/03 08:14:20;;;;;;;7.30;5.90;;;;;;;7.55;100.00;99049.70;105680;1257;61589;-73
2024/02/03 08:16:47;;;;;;;9.70;5.70;;;;;;;7.56;100.00;99056.38;105993;1250;64558;-73
2024/02/03 08:19:13;;;;;;;7.10;5.30;;;;;;;7.55;100.00;99057.66;105932;1256;59654;-72
2024/02/03 08:21:40;;;;;;;11.30;6.80;;;;;;;7.53;100.00;99055.27;106010;1250;59554;-73
2024/02/03 08:24:06;;;;;;;6.40;5.50;;;;;;;7.54;100.00;99058.27;105627;1254;65946;-72
2024/02/03 08:26:33;;;;;;;6.40;5.00;;;;;;;7.57;100.00;99060.54;105965;1250;59884;-73
2024/02/03 08:29:00;;;;;;;7.70;5.90;;;;;;;7.61;100.00;99063.50;105585;1258;62858;-74
2024/02/03 08:31:26;;;;;;;8.00;5.60;;;;;;;7.63;100.00;99064.80;105790;1256;59702;-74
2024/02/03 08:33:53;;;;;;;8.30;5.40;;;;;;;7.68;100.00;99068.11;105992;1251;59627;-72
2024/02/03 08:36:20;;;;;;;8.10;5.70;;;;;;;7.72;100.00;99067.89;105944;1251;65883;-74
2024/02/03 08:38:46;;;;;;;6.50;5.40;;;;;;;7.75;100.00;99067.03;105943;1256;61378;-74
2024/02/03 08:41:13;;;;;;;10.10;5.70;;;;;;;7.78;100.00;99065.23;105952;1250;65839;-74
2024/02/03 08:43:40;;;;;;;7.10;5.60;;;;;;;7.81;100.00;99068.48;105976;1250;59647;-73
2024/02/03 08:46:08;;;;;;;8.00;5.50;;;;;;;7.84;100.00;99059.44;105946;1250;59602;-73
2024/02/03 08:48:34;;;;;;;6.90;5.90;;;;;;;7.87;100.00;99054.30;105950;1251;64981;-73
2024/02/03 08:51:02;;;;;;;7.00;5.60;;;;;;;7.89;100.00;99059.00;105978;1251;61982;-73
2024/02/03 08:53:28;;;;;;;7.30;5.20;;;;;;;7.90;100.00;99063.20;105623;1259;64713;-73
2024/02/03 08:55:55;;;;;;;7.40;5.30;;;;;;;7.92;100.00;99064.15;105966;1252;59654;-74
2024/02/03 08:58:21;;;;;;;11.70;5.90;;;;;;;7.96;100.00;99064.43;106002;1255;59619;-75
2024/02/03 09:00:49;;;;;;;7.50;6.20;;;;;;;7.97;100.00;99069.50;105948;1256;64995;-74
2024/02/03 09:03:15;;;;;;;6.90;6.00;;;;;;;7.97;100.00;99067.38;105970;1256;61067;-73
2024/02/03 09:05:42;;;;;;;8.90;7.40;;;;;;;7.97;100.00;99065.27;105989;1256;65347;-73
2024/02/03 09:08:09;;;;;;;7.70;6.90;;;;;;;7.97;100.00;99066.69;105838;1250;59720;-73
2024/02/03 09:10:36;;;;;;;8.90;6.70;;;;;;;7.98;100.00;99069.63;105987;1254;59736;-73
2024/02/03 09:13:03;;;;;;;7.80;6.10;;;;;;;8.01;100.00;99062.77;106050;1252;65211;-73
2024/02/03 09:15:29;;;;;;;7.50;5.50;;;;;;;8.01;100.00;99063.63;106046;1250;60712;-74
2024/02/03 09:17:56;;;;;;;7.50;5.80;;;;;;;8.00;100.00;99071.11;105952;1255;64667;-72
2024/02/03 09:20:23;;;;;;;8.10;6.10;;;;;;;8.00;100.00;99067.21;106065;1250;59606;-73
2024/02/03 09:22:49;;;;;;;8.40;6.40;;;;;;;8.01;100.00;99056.76;105936;1256;59554;-73
2024/02/03 09:25:16;;;;;;;8.60;6.60;;;;;;;8.00;100.00;99062.25;105969;1255;65940;-73
2024/02/03 09:27:42;;;;;;;6.80;6.10;;;;;;;8.00;100.00;99062.45;105945;1255;60763;-74
2024/02/03 09:30:11;;;;;;;8.30;6.50;;;;;;;8.01;100.00;99060.65;105821;1257;65639;-74
2024/02/03 09:32:38;;;;;;;8.10;6.10;;;;;;;8.03;100.00;99062.08;105953;1251;59572;-74
2024/02/03 09:35:05;;;;;;;8.80;6.10;;;;;;;8.07;100.00;99062.41;105989;1257;59631;-73
2024/02/03 09:37:31;;;;;;;10.50;7.10;;;;;;;8.10;100.00;99061.53;105964;1256;64880;-73
2024/02/03 09:39:58;;;;;;;8.10;6.20;;;;;;;8.15;100.00;99057.37;105975;1257;60343;-75
2024/02/03 09:42:25;;;;;;;9.40;6.70;;;;;;;8.19;100.00;99064.23;105996;1252;64818;-74
2024/02/03 09:44:52;;;;;;;8.90;6.40;;;;;;;8.25;100.00;99068.15;105973;1251;59545;-74
2024/02/03 09:47:19;;;;;;;10.00;6.70;;;;;;;8.30;100.00;99065.35;105966;1251;59745;-73
2024/02/03 09:49:47;;;;;;;10.00;6.80;;;;;;;8.38;100.00;99062.84;105985;1250;64956;-74
2024/02/03 09:52:15;;;;;;;8.80;6.90;;;;;;;8.43;100.00;99060.30;106076;1250;61566;-76
2024/02/03 09:54:47;;;;;;;8.00;6.70;;;;;;;8.46;100.00;99058.83;106034;1255;65316;-75
2024/02/03 09:57:14;;;;;;;9.10;7.20;;;;;;;8.49;100.00;99062.23;105954;1251;60454;-75
2024/02/03 09:59:41;;;;;;;8.80;7.30;;;;;;;8.51;100.00;99060.48;106019;1250;60491;-75
2024/02/03 10:02:07;;;;;;;8.30;6.80;;;;;;;8.56;100.00;99063.04;106111;1251;65823;-73
2024/02/03 10:04:40;;;;;;;7.80;6.40;;;;;;;8.59;100.00;99061.11;105949;1251;61506;-73
2024/02/03 10:07:07;;;;;;;7.40;6.50;;;;;;;8.57;100.00;99061.76;105819;1256;64090;-73
2024/02/03 10:09:33;;;;;;;7.70;6.00;;;;;;;8.60;100.00;99058.95;105958;1251;60428;-74
2024/02/03 10:12:01;;;;;;;8.10;6.90;;;;;;;8.63;100.00;99058.38;105980;1256;60488;-73
2024/02/03 10:14:28;;;;;;;8.40;6.60;;;;;;;8.72;100.00;99055.77;106009;1256;66743;-73
2024/02/03 10:16:54;;;;;;;7.10;6.10;;;;;;;8.85;100.00;99048.98;106139;1250;60462;-74
2024/02/03 10:19:21;;;;;;;7.00;6.20;;;;;;;8.98;100.00;99048.35;105950;1251;65720;-74
2024/02/03 10:21:50;;;;;;;6.60;5.80;;;;;;;9.10;100.00;99046.78;105938;1256;60358;-73
2024/02/03 10:24:25;;;;;;;7.20;6.50;;;;;;;9.20;100.00;99047.02;105991;1251;60719;-74
2024/02/03 10:27:03;;;;;;;7.80;6.10;;;;;;;9.31;100.00;99044.98;105934;1251;65827;-74
2024/02/03 10:29:30;;;;;;;7.60;6.80;;;;;;;9.40;100.00;99038.73;105734;1256;60574;-74
2024/02/03 10:31:57;;;;;;;7.90;6.10;;;;;;;9.49;100.00;99040.84;105891;1251;64766;-75
2024/02/03 10:34:23;;;;;;;8.50;6.30;;;;;;;9.56;100.00;99046.45;105937;1263;60563;-74
2024/02/03 10:36:50;;;;;;;7.10;6.20;;;;;;;9.62;100.00;99050.10;105995;1256;60421;-73
2024/02/03 10:39:17;;;;;;;9.10;6.20;;;;;;;9.67;100.00;99050.70;105971;1253;66450;-74
2024/02/03 10:41:47;;;;;;;7.80;5.90;;;;;;;9.73;100.00;99051.80;105800;1257;61488;-72
2024/02/03 10:44:21;;;;;;;;;;;;;;;9.75;100.00;99051.13;105941;1254;65382;-73
2024/02/03 10:46:52;;;;;;;8.20;7.20;;;;;;;9.67;100.00;99056.41;105951;1256;60520;-74
2024/02/03 10:49:30;;;;;;;7.60;6.70;;;;;;;9.54;100.00;99059.34;105971;1257;60425;-73
2024/02/03 10:51:58;;;;;;;9.10;6.40;;;;;;;9.42;100.00;99060.42;105969;1255;67027;-74
2024/02/03 10:54:28;;;;;;;8.30;6.40;;;;;;;9.36;100.00;99060.61;106071;1251;61023;-74
2024/02/03 10:56:56;;;;;;;8.60;6.60;;;;;;;9.33;100.00;99060.64;106175;1254;65625;-74
2024/02/03 10:59:23;;;;;;;9.70;6.40;;;;;;;9.29;100.00;99064.04;106005;1254;60870;-75
2024/02/03 11:01:50;;;;;;;7.00;6.30;;;;;;;9.26;100.00;99065.29;105989;1251;60345;-73
2024/02/03 11:04:17;;;;;;;9.20;6.40;;;;;;;9.22;100.00;99072.08;105967;1250;65502;-74
2024/02/03 11:06:47;;;;;;;7.50;6.00;;;;;;;9.21;100.00;99073.36;105990;1251;61674;-74
2024/02/03 11:09:20;;;;;;;8.40;7.30;;;;;;;9.19;100.00;99074.95;105769;1264;63000;-75
2024/02/03 11:11:49;;;;;;;8.70;7.20;;;;;;;9.11;100.00;99070.80;106207;1264;60536;-74
2024/02/03 11:14:18;;;;;;;8.00;6.20;;;;;;;9.02;100.00;99073.30;106027;1256;60534;-75
2024/02/03 11:16:54;;;;;;;6.80;6.10;;;;;;;8.92;100.00;99068.95;106071;1254;65586;-73
2024/02/03 11:19:30;;;;;;;9.00;6.70;;;;;;;8.84;100.00;99065.15;106007;1255;60789;-74
2024/02/03 11:22:01;;;;;;;9.70;7.40;;;;;;;8.80;100.00;99063.45;106091;1255;64711;-73
2024/02/03 11:24:28;;;;;;;9.20;7.50;;;;;;;8.88;100.00;99053.39;105950;1254;60523;-73
2024/02/03 11:26:56;;;;;;;8.30;6.80;;;;;;;8.98;100.00;99051.55;105898;1257;60534;-74
2024/02/03 11:29:23;;;;;;;9.10;7.00;;;;;;;9.07;100.00;99044.30;106044;1251;66830;-73
2024/02/03 11:32:04;;;;;;;10.30;8.30;;;;;;;9.16;100.00;99050.14;105892;1257;61859;-74
2024/02/03 11:34:32;;;;;;;9.60;7.20;;;;;;;9.21;100.00;99045.90;106058;1252;65636;-73
2024/02/03 11:36:59;;;;;;;9.20;7.40;;;;;;;9.21;100.00;99044.14;105979;1251;60412;-72
2024/02/03 11:39:29;;;;;;;10.10;7.30;;;;;;;9.27;100.00;99035.08;105958;1255;60291;-73
2024/02/03 11:41:57;;;;;;;7.90;7.10;;;;;;;9.33;100.00;99031.39;105945;1257;65951;-74
2024/02/03 11:44:29;;;;;;;7.00;6.30;;;;;;;9.32;100.00;99033.36;105826;1251;62030;-74